Time;durP1;ratioP1;P1;durP2;ratioP2;P2;SDS_P1;SDS_P2;PMS_P1;PMS_P2;Temp;Humidity;BMP_temperature;BMP_pressure;BME280_temperature;BME280_humidity;BME280_pressure;Samples;Min_cycle;Max_cycle;Signal;HPM_P1;HPM_P2
2023/10/19 00:00:50;;;;;;;3.95;2.30;;;11.40;99.90;;;;;;5045361;28;20034;-74
2023/10/19 00:03:18;;;;;;;2.93;1.67;;;11.50;99.90;;;;;;5035406;28;20037;-75
2023/10/19 00:05:46;;;;;;;3.45;2.30;;;11.50;99.90;;;;;;5050332;28;20060;-74
2023/10/19 00:10:42;;;;;;;2.53;2.30;;;11.40;99.90;;;;;;5055351;28;20418;-77
2023/10/19 00:13:11;;;;;;;2.92;2.25;;;11.40;99.90;;;;;;5033339;28;20493;-76
2023/10/19 00:15:48;;;;;;;4.25;1.98;;;11.40;99.90;;;;;;5057001;28;20044;-77
2023/10/19 00:23:13;;;;;;;2.83;2.63;;;11.30;99.90;;;;;;5052648;28;20040;-75
2023/10/19 00:25:44;;;;;;;6.25;3.65;;;11.30;99.90;;;;;;5037466;28;20041;-76
2023/10/19 00:28:12;;;;;;;4.95;2.83;;;11.30;99.90;;;;;;5050575;28;20032;-73
2023/10/19 00:30:42;;;;;;;2.53;2.33;;;11.30;99.90;;;;;;5049529;28;20035;-75
2023/10/19 00:33:16;;;;;;;1.70;1.55;;;11.30;99.90;;;;;;5049945;28;20029;-73
2023/10/19 00:36:06;;;;;;;3.90;1.98;;;11.30;99.90;;;;;;5056478;28;20052;-77
2023/10/19 00:43:44;;;;;;;4.88;2.17;;;11.30;99.90;;;;;;5044153;28;20038;-75
2023/10/19 00:48:54;;;;;;;3.70;2.38;;;11.30;99.90;;;;;;5055272;28;20032;-74
2023/10/19 00:54:09;;;;;;;2.65;2.42;;;11.40;99.90;;;;;;5045078;28;20040;-74
2023/10/19 00:56:36;;;;;;;7.18;2.63;;;11.40;99.90;;;;;;5050539;28;20480;-74
2023/10/19 00:59:14;;;;;;;2.38;1.75;;;11.40;99.90;;;;;;5053500;28;20025;-74
2023/10/19 01:01:45;;;;;;;2.65;2.45;;;11.40;99.90;;;;;;5055493;28;20040;-76
2023/10/19 01:04:14;;;;;;;3.47;2.58;;;11.40;99.90;;;;;;5049013;28;20041;-74
2023/10/19 01:06:58;;;;;;;4.10;2.00;;;11.40;99.90;;;;;;5041701;28;20036;-76
2023/10/19 01:09:27;;;;;;;3.88;2.70;;;11.40;99.90;;;;;;5052552;28;20488;-74
2023/10/19 01:11:54;;;;;;;2.38;2.15;;;11.40;99.90;;;;;;5051011;28;20393;-75
2023/10/19 01:14:27;;;;;;;3.22;2.42;;;11.40;99.90;;;;;;5042798;28;20045;-73
2023/10/19 01:16:57;;;;;;;4.85;2.47;;;11.40;99.90;;;;;;5045475;28;20037;-73
2023/10/19 01:19:23;;;;;;;5.13;1.85;;;11.40;99.90;;;;;;5051178;28;20029;-75
2023/10/19 01:21:52;;;;;;;4.35;3.72;;;11.40;99.90;;;;;;5049832;28;20037;-75
2023/10/19 01:24:39;;;;;;;2.03;1.83;;;11.40;99.90;;;;;;5045772;28;20052;-75
2023/10/19 01:27:08;;;;;;;2.92;2.70;;;11.40;99.90;;;;;;5051580;28;20040;-75
2023/10/19 01:29:39;;;;;;;3.58;2.55;;;11.40;99.90;;;;;;5060849;28;20531;-75
2023/10/19 01:32:06;;;;;;;3.35;3.05;;;11.40;99.90;;;;;;5033033;28;20036;-73
2023/10/19 01:34:36;;;;;;;2.35;2.15;;;11.40;99.90;;;;;;5046745;28;20043;-74
2023/10/19 01:37:04;;;;;;;2.83;2.50;;;11.40;99.90;;;;;;5039439;28;20118;-74
2023/10/19 01:39:32;;;;;;;6.97;4.22;;;11.30;99.90;;;;;;5055390;28;20036;-74
2023/10/19 01:41:58;;;;;;;2.63;2.38;;;11.40;99.90;;;;;;5057691;28;20033;-74
2023/10/19 01:44:26;;;;;;;3.03;2.50;;;11.40;99.90;;;;;;5014569;28;20447;-74
2023/10/19 01:46:52;;;;;;;2.78;2.05;;;11.40;99.90;;;;;;5049975;28;20040;-75
2023/10/19 01:49:26;;;;;;;1.95;1.83;;;11.40;99.90;;;;;;5047868;28;20032;-75
2023/10/19 01:51:54;;;;;;;3.05;2.08;;;11.40;99.90;;;;;;5053311;28;20385;-74
2023/10/19 01:54:24;;;;;;;2.67;2.38;;;11.40;99.90;;;;;;5038433;28;20045;-74
2023/10/19 01:56:54;;;;;;;;;;;11.40;99.90;;;;;;5046312;28;20037;-74
2023/10/19 01:59:27;;;;;;;2.00;1.88;;;11.40;99.90;;;;;;5021668;28;19912;-75
2023/10/19 02:01:54;;;;;;;4.57;2.47;;;11.40;99.90;;;;;;5043385;28;20159;-73
2023/10/19 02:04:23;;;;;;;2.00;1.80;;;11.40;99.90;;;;;;5038125;28;20513;-74
2023/10/19 02:06:52;;;;;;;10.52;3.60;;;11.30;99.90;;;;;;5055429;28;20033;-74
2023/10/19 02:09:22;;;;;;;3.75;3.22;;;11.30;99.90;;;;;;5045309;28;20096;-74
2023/10/19 02:11:56;;;;;;;4.32;3.05;;;11.30;99.90;;;;;;5050906;28;20041;-74
2023/10/19 02:14:24;;;;;;;5.63;3.75;;;11.30;99.90;;;;;;5039760;28;20040;-73
2023/10/19 02:16:53;;;;;;;5.15;1.13;;;11.30;99.90;;;;;;5049063;28;20454;-72
2023/10/19 02:19:20;;;;;;;3.85;2.75;;;11.30;99.90;;;;;;5033953;28;20045;-74
2023/10/19 02:21:55;;;;;;;5.72;3.03;;;11.30;99.90;;;;;;5052987;28;20033;-77
2023/10/19 02:24:22;;;;;;;2.42;1.67;;;11.30;99.90;;;;;;5047218;28;20363;-74
2023/10/19 02:26:53;;;;;;;2.83;1.70;;;11.20;99.90;;;;;;5046009;28;20044;-74
2023/10/19 02:29:21;;;;;;;2.75;2.28;;;11.20;99.90;;;;;;5031689;28;20383;-74
2023/10/19 02:31:48;;;;;;;2.30;2.10;;;11.20;99.90;;;;;;5044626;28;20056;-75
2023/10/19 02:34:15;;;;;;;12.55;3.05;;;11.20;99.90;;;;;;5060346;28;20047;-73
2023/10/19 02:36:43;;;;;;;2.78;2.42;;;11.20;99.90;;;;;;5044826;28;20037;-73
2023/10/19 02:39:13;;;;;;;2.58;2.05;;;11.10;99.90;;;;;;5045226;28;20033;-73
2023/10/19 02:41:42;;;;;;;2.60;1.70;;;11.10;99.90;;;;;;5043569;28;20021;-73
2023/10/19 02:44:19;;;;;;;4.88;2.42;;;11.10;99.90;;;;;;5049873;28;20037;-73
2023/10/19 02:46:50;;;;;;;5.90;2.28;;;11.20;99.90;;;;;;5033122;28;20423;-74
2023/10/19 02:49:20;;;;;;;1.77;1.67;;;11.30;99.90;;;;;;5050677;28;20048;-73
2023/10/19 02:51:49;;;;;;;4.28;3.60;;;11.30;99.90;;;;;;5039206;28;20057;-75
2023/10/19 02:54:24;;;;;;;4.65;1.25;;;11.30;99.90;;;;;;5047194;28;20453;-73
2023/10/19 02:56:56;;;;;;;3.70;2.88;;;11.40;99.90;;;;;;5051387;28;20056;-73
2023/10/19 02:59:24;;;;;;;5.10;2.47;;;11.40;99.90;;;;;;5053168;28;20373;-73
2023/10/19 03:02:06;;;;;;;6.55;3.17;;;11.50;99.90;;;;;;5044072;28;20041;-73
2023/10/19 03:04:36;;;;;;;8.25;3.35;;;11.50;99.90;;;;;;5040827;28;20045;-73
2023/10/19 03:07:05;;;;;;;2.63;1.98;;;11.60;99.90;;;;;;5052389;28;20051;-73
2023/10/19 03:09:36;;;;;;;3.92;3.38;;;11.60;99.90;;;;;;5048835;28;20410;-72
2023/10/19 03:12:04;;;;;;;2.20;2.00;;;11.60;99.90;;;;;;5049556;28;20045;-72
2023/10/19 03:14:33;;;;;;;3.08;2.15;;;11.50;99.90;;;;;;5025016;28;20038;-73
2023/10/19 03:17:00;;;;;;;3.20;2.90;;;11.50;99.90;;;;;;5051346;28;20036;-73
2023/10/19 03:19:28;;;;;;;3.53;2.20;;;11.60;99.90;;;;;;5047787;28;20036;-73
2023/10/19 03:22:00;;;;;;;1.65;1.55;;;11.60;99.90;;;;;;5045958;28;20454;-73
2023/10/19 03:24:42;;;;;;;2.97;2.45;;;11.60;99.90;;;;;;5053460;28;20056;-75
2023/10/19 03:27:23;;;;;;;2.53;2.35;;;11.60;99.90;;;;;;5038463;28;20028;-75
2023/10/19 03:29:54;;;;;;;3.10;2.08;;;11.50;99.90;;;;;;5046896;28;20423;-77
2023/10/19 03:32:26;;;;;;;2.63;2.00;;;11.50;99.90;;;;;;5049512;28;20037;-72
2023/10/19 03:34:55;;;;;;;2.63;2.28;;;11.60;99.90;;;;;;5050648;28;20044;-72
2023/10/19 03:37:29;;;;;;;2.03;1.75;;;11.60;99.90;;;;;;5033940;28;20044;-73
2023/10/19 03:39:58;;;;;;;2.80;1.95;;;11.60;99.90;;;;;;5058318;28;20040;-74
2023/10/19 03:42:27;;;;;;;5.10;3.40;;;11.50;99.90;;;;;;5030988;28;20037;-73
2023/10/19 03:44:54;;;;;;;3.17;2.75;;;11.60;99.90;;;;;;5044287;28;20036;-73
2023/10/19 03:47:25;;;;;;;3.88;3.00;;;11.50;99.90;;;;;;5051425;28;20036;-73
2023/10/19 03:49:52;;;;;;;3.00;2.70;;;11.50;99.90;;;;;;5058625;28;20036;-72
2023/10/19 03:54:46;;;;;;;4.28;2.88;;;11.50;99.90;;;;;;5050951;28;20521;-73
2023/10/19 03:57:19;;;;;;;5.63;2.00;;;11.40;99.90;;;;;;5042248;28;20068;-73
2023/10/19 03:59:46;;;;;;;1.70;1.60;;;11.40;99.90;;;;;;5056014;28;20036;-73
2023/10/19 04:02:16;;;;;;;2.35;2.05;;;11.40;99.90;;;;;;5055594;28;20040;-76
2023/10/19 04:04:43;;;;;;;2.95;2.53;;;11.40;99.90;;;;;;5058504;28;20033;-74
2023/10/19 04:07:25;;;;;;;2.60;2.35;;;11.40;99.90;;;;;;5046462;28;20626;-76
2023/10/19 04:12:35;;;;;;;3.50;2.20;;;11.40;99.90;;;;;;5057898;28;20029;-75
2023/10/19 04:15:15;;;;;;;2.75;2.25;;;11.40;99.90;;;;;;5053998;28;20025;-75
2023/10/19 04:17:48;;;;;;;2.47;2.03;;;11.40;99.90;;;;;;5041534;28;20052;-74
2023/10/19 04:22:48;;;;;;;4.18;1.58;;;11.50;99.90;;;;;;5049148;28;20040;-74
2023/10/19 04:25:48;;;;;;;1.92;1.83;;;11.50;99.90;;;;;;5046974;28;20040;-82
2023/10/19 04:28:09;;;;;;;2.70;2.35;;;11.60;99.90;;;;;;5053094;28;20052;-82
2023/10/19 04:30:37;;;;;;;2.75;2.38;;;11.60;99.90;;;;;;5052880;28;20037;-82
2023/10/19 04:33:08;;;;;;;2.15;2.00;;;11.60;99.90;;;;;;5052830;28;20044;-82
2023/10/19 04:35:36;;;;;;;2.58;1.75;;;11.60;99.90;;;;;;5054168;28;20052;-82
2023/10/19 04:38:06;;;;;;;2.88;2.60;;;11.60;99.90;;;;;;5039876;28;20040;-82
2023/10/19 04:40:32;;;;;;;2.42;2.13;;;11.70;99.90;;;;;;5053785;28;20056;-81
2023/10/19 04:42:59;;;;;;;3.08;1.95;;;11.70;99.90;;;;;;5044013;28;20025;-82
2023/10/19 04:45:25;;;;;;;6.72;3.33;;;11.70;99.90;;;;;;5061066;28;20033;-81
2023/10/19 04:47:52;;;;;;;2.00;1.35;;;11.70;99.90;;;;;;5039235;28;20052;-84
2023/10/19 04:50:18;;;;;;;4.75;2.03;;;11.70;99.90;;;;;;5033184;28;20044;-82
2023/10/19 04:52:45;;;;;;;2.22;2.03;;;11.70;99.90;;;;;;5063680;28;20489;-83
2023/10/19 04:55:11;;;;;;;1.27;1.00;;;11.80;99.90;;;;;;5060349;28;20194;-83
2023/10/19 04:57:37;;;;;;;2.17;1.98;;;11.70;99.90;;;;;;5046273;28;20045;-81
2023/10/19 05:00:04;;;;;;;1.05;1.02;;;11.70;99.90;;;;;;5038794;28;20052;-83
2023/10/19 05:02:30;;;;;;;0.60;0.52;;;11.70;99.90;;;;;;5023947;28;20136;-83
2023/10/19 05:04:56;;;;;;;2.13;1.42;;;11.60;99.90;;;;;;5035979;28;20021;-86
2023/10/19 05:07:22;;;;;;;13.98;2.10;;;11.60;99.90;;;;;;5050646;28;20040;-83
2023/10/19 05:09:48;;;;;;;2.25;1.52;;;11.50;99.90;;;;;;5036394;28;20041;-84
2023/10/19 05:12:15;;;;;;;9.85;1.42;;;11.50;99.90;;;;;;5035582;28;20033;-83
2023/10/19 05:14:42;;;;;;;2.42;2.20;;;11.50;99.90;;;;;;5057540;28;20029;-84
2023/10/19 05:17:09;;;;;;;1.92;1.80;;;11.50;99.90;;;;;;5030061;28;20049;-81
2023/10/19 05:19:37;;;;;;;5.75;1.75;;;11.40;99.90;;;;;;5052803;28;20036;-80
2023/10/19 05:22:06;;;;;;;3.25;1.92;;;11.40;99.90;;;;;;5053220;28;20037;-83
2023/10/19 05:24:32;;;;;;;3.05;2.55;;;11.40;99.90;;;;;;5041470;28;20045;-83
2023/10/19 05:26:58;;;;;;;4.20;2.90;;;11.40;99.90;;;;;;5040189;28;20060;-86
2023/10/19 05:29:24;;;;;;;3.97;2.90;;;11.30;99.90;;;;;;5051812;28;20029;-83
2023/10/19 05:31:57;;;;;;;3.15;0.95;;;11.30;99.90;;;;;;5045033;28;20041;-84
2023/10/19 05:34:26;;;;;;;3.90;1.92;;;11.30;99.90;;;;;;5045163;28;20045;-82
2023/10/19 05:36:54;;;;;;;0.85;0.80;;;11.30;99.90;;;;;;5043031;28;20497;-78
2023/10/19 05:39:20;;;;;;;2.78;2.58;;;11.30;99.90;;;;;;5040416;28;20032;-77
2023/10/19 05:41:47;;;;;;;0.98;0.85;;;11.30;99.90;;;;;;5032862;28;20033;-78
2023/10/19 05:44:13;;;;;;;3.60;2.15;;;11.20;99.90;;;;;;5026822;28;20716;-78
2023/10/19 05:46:40;;;;;;;1.52;1.35;;;11.20;99.90;;;;;;5053357;28;20076;-77
2023/10/19 05:49:07;;;;;;;2.40;2.20;;;11.20;99.90;;;;;;5058497;28;20134;-76
2023/10/19 05:51:34;;;;;;;2.72;2.08;;;11.10;99.90;;;;;;5040947;28;20043;-77
2023/10/19 05:54:03;;;;;;;1.27;1.17;;;11.10;99.90;;;;;;5046174;28;20037;-76
2023/10/19 05:56:30;;;;;;;3.63;2.85;;;11.20;99.90;;;;;;5043551;28;20037;-75
2023/10/19 05:58:57;;;;;;;1.48;1.38;;;11.10;99.90;;;;;;5049927;28;20037;-78
2023/10/19 06:01:24;;;;;;;1.60;1.50;;;11.20;99.90;;;;;;5056862;28;20461;-75
2023/10/19 06:03:51;;;;;;;5.75;2.90;;;11.20;99.90;;;;;;5044859;28;20470;-75
2023/10/19 06:06:17;;;;;;;4.40;2.47;;;11.30;99.90;;;;;;5045911;28;20049;-75
2023/10/19 06:08:43;;;;;;;3.75;2.05;;;11.30;99.90;;;;;;5049285;28;20040;-77
2023/10/19 06:11:09;;;;;;;3.53;1.60;;;11.30;99.90;;;;;;5049022;28;20029;-76
2023/10/19 06:13:35;;;;;;;3.28;2.35;;;11.30;99.90;;;;;;5032746;28;20037;-75
2023/10/19 06:16:02;;;;;;;1.80;1.63;;;11.30;99.90;;;;;;5051721;28;20048;-76
2023/10/19 06:18:31;;;;;;;1.15;1.08;;;11.40;99.90;;;;;;5038505;28;20044;-76
2023/10/19 06:20:57;;;;;;;2.97;2.20;;;11.50;99.90;;;;;;5032848;28;20099;-75
2023/10/19 06:23:24;;;;;;;3.90;2.10;;;11.60;99.90;;;;;;5012433;28;20045;-76
2023/10/19 06:25:51;;;;;;;2.38;1.85;;;11.60;99.90;;;;;;5030280;28;20049;-76
2023/10/19 06:28:17;;;;;;;1.27;1.17;;;11.70;99.90;;;;;;5033614;28;20033;-76
2023/10/19 06:30:45;;;;;;;1.80;1.60;;;11.70;99.90;;;;;;5059338;28;20028;-75
2023/10/19 06:33:11;;;;;;;1.98;1.80;;;11.80;99.90;;;;;;5031131;28;20457;-76
2023/10/19 06:35:37;;;;;;;2.08;1.98;;;11.80;99.90;;;;;;5051692;28;20377;-82
2023/10/19 06:38:03;;;;;;;2.40;1.48;;;11.90;99.90;;;;;;5031565;28;20040;-83
2023/10/19 06:40:30;;;;;;;2.95;2.28;;;11.90;99.90;;;;;;5046550;28;20024;-83
2023/10/19 06:42:58;;;;;;;3.92;2.65;;;12.00;99.90;;;;;;5054959;28;20037;-85
2023/10/19 06:45:25;;;;;;;5.70;2.70;;;12.10;99.90;;;;;;5036740;28;20037;-84
2023/10/19 06:47:52;;;;;;;4.25;2.97;;;12.20;99.90;;;;;;5067839;28;20036;-83
2023/10/19 06:50:20;;;;;;;3.38;2.75;;;12.30;99.90;;;;;;5052695;28;20389;-84
2023/10/19 06:52:50;;;;;;;2.33;2.15;;;12.40;99.90;;;;;;5066223;28;20048;-84
2023/10/19 06:55:21;;;;;;;3.05;1.63;;;12.40;99.90;;;;;;5036011;28;20044;-84
2023/10/19 06:57:49;;;;;;;7.00;2.42;;;12.50;99.90;;;;;;5052874;28;20055;-84
2023/10/19 07:00:21;;;;;;;2.45;1.88;;;12.60;99.90;;;;;;5064365;28;20044;-83
2023/10/19 07:02:49;;;;;;;1.10;1.00;;;12.70;99.90;;;;;;5052446;28;20031;-83
2023/10/19 07:05:20;;;;;;;4.15;1.95;;;12.60;99.90;;;;;;5041861;28;20026;-82
2023/10/19 07:07:47;;;;;;;1.67;1.58;;;12.70;99.90;;;;;;5027772;28;20033;-82
2023/10/19 07:10:14;;;;;;;6.32;2.65;;;12.70;99.90;;;;;;5066814;28;20412;-85
2023/10/19 07:12:46;;;;;;;3.45;2.33;;;12.70;99.90;;;;;;5055312;28;20456;-82
2023/10/19 07:15:18;;;;;;;1.52;1.42;;;12.80;99.90;;;;;;5049356;28;20033;-83
2023/10/19 07:17:46;;;;;;;6.45;3.97;;;12.90;99.90;;;;;;5028129;28;20044;-83
2023/10/19 07:20:32;;;;;;;2.75;1.83;;;13.00;99.90;;;;;;5027224;28;20038;-83
2023/10/19 07:23:05;;;;;;;3.92;2.30;;;13.10;99.90;;;;;;5059517;28;20044;-83
2023/10/19 07:25:35;;;;;;;3.92;2.17;;;13.10;99.90;;;;;;5059300;28;20045;-85
2023/10/19 07:28:03;;;;;;;1.70;1.60;;;13.00;99.90;;;;;;5028823;28;20033;-83
2023/10/19 07:30:30;;;;;;;2.78;1.90;;;13.00;99.90;;;;;;5015370;28;20390;-84
2023/10/19 07:32:59;;;;;;;2.22;2.05;;;13.00;99.90;;;;;;5028072;28;20048;-85
2023/10/19 07:35:26;;;;;;;2.22;1.63;;;13.00;99.90;;;;;;5052731;28;20029;-78
2023/10/19 07:37:53;;;;;;;2.20;1.55;;;13.10;99.90;;;;;;5040030;28;20370;-80
2023/10/19 07:40:20;;;;;;;1.80;1.65;;;13.00;99.90;;;;;;5037028;28;20056;-81
2023/10/19 07:42:48;;;;;;;1.05;0.88;;;13.10;99.90;;;;;;5048018;28;20041;-81
2023/10/19 07:45:15;;;;;;;2.90;2.40;;;13.10;99.90;;;;;;5039060;28;20040;-81
2023/10/19 07:47:42;;;;;;;5.85;2.75;;;13.10;99.90;;;;;;5039050;28;20043;-81
2023/10/19 07:50:15;;;;;;;4.53;1.85;;;13.20;99.90;;;;;;5033688;28;20462;-81
2023/10/19 07:52:49;;;;;;;2.03;1.83;;;13.20;99.90;;;;;;5034693;28;20045;-81
2023/10/19 07:55:23;;;;;;;1.38;1.30;;;13.20;99.90;;;;;;5041704;28;20044;-83
2023/10/19 07:57:50;;;;;;;1.65;1.55;;;13.20;99.90;;;;;;5055713;28;20045;-82
2023/10/19 08:00:20;;;;;;;3.13;2.33;;;13.20;99.90;;;;;;5036840;28;20036;-81
2023/10/19 08:02:46;;;;;;;2.00;1.90;;;13.30;99.90;;;;;;5047660;28;20032;-81
2023/10/19 08:05:13;;;;;;;3.35;1.70;;;13.30;99.90;;;;;;5050817;28;20044;-81
2023/10/19 08:07:42;;;;;;;2.00;1.83;;;13.40;99.90;;;;;;5036878;28;20393;-80
2023/10/19 08:10:11;;;;;;;2.00;1.85;;;13.50;99.90;;;;;;5057397;28;20466;-81
2023/10/19 08:12:41;;;;;;;1.63;1.15;;;13.70;99.90;;;;;;5073205;28;20036;-84
2023/10/19 08:15:11;;;;;;;2.00;1.50;;;14.00;99.90;;;;;;5055525;28;20026;-82
2023/10/19 08:17:41;;;;;;;0.93;0.75;;;14.50;99.90;;;;;;5067709;28;20041;-82
2023/10/19 08:20:09;;;;;;;0.65;0.65;;;14.50;99.90;;;;;;5039179;28;20033;-82
2023/10/19 08:22:36;;;;;;;1.95;1.48;;;14.60;99.90;;;;;;5051031;28;20072;-82
2023/10/19 08:25:11;;;;;;;8.30;2.38;;;14.90;99.90;;;;;;5038701;28;20044;-83
2023/10/19 08:27:39;;;;;;;2.60;2.17;;;15.90;99.90;;;;;;5058026;28;20116;-83
2023/10/19 08:30:08;;;;;;;2.20;1.13;;;16.70;99.90;;;;;;5019816;28;20501;-82
2023/10/19 08:32:35;;;;;;;1.88;1.30;;;17.20;99.90;;;;;;5027639;28;20048;-82
2023/10/19 08:35:02;;;;;;;3.10;0.60;;;17.60;99.90;;;;;;5049283;28;20028;-85
2023/10/19 08:37:29;;;;;;;1.55;1.45;;;18.40;99.90;;;;;;5048020;28;20409;-82
2023/10/19 08:39:55;;;;;;;1.60;0.63;;;18.60;99.90;;;;;;5051268;28;20056;-82
2023/10/19 08:42:21;;;;;;;1.52;1.42;;;17.70;99.90;;;;;;5012680;28;20052;-79
2023/10/19 08:44:48;;;;;;;3.42;0.63;;;17.50;99.90;;;;;;5050304;28;20043;-83
2023/10/19 08:47:15;;;;;;;0.43;0.43;;;17.70;99.90;;;;;;5024698;28;20048;-84
2023/10/19 08:49:42;;;;;;;1.70;1.60;;;17.70;99.90;;;;;;5032260;28;20040;-77
2023/10/19 08:52:09;;;;;;;0.77;0.75;;;17.60;99.90;;;;;;5041538;28;20055;-86
2023/10/19 08:54:35;;;;;;;0.80;0.80;;;17.90;99.90;;;;;;5074551;28;20015;-87
2023/10/19 08:57:02;;;;;;;2.83;1.27;;;18.10;99.90;;;;;;5064015;28;20037;-88
2023/10/19 08:59:28;;;;;;;1.00;0.93;;;17.70;99.90;;;;;;5058239;28;20242;-88
2023/10/19 09:02:02;;;;;;;1.08;0.90;;;17.50;99.90;;;;;;5042086;28;20143;-88
2023/10/19 09:04:30;;;;;;;0.98;0.85;;;17.40;99.90;;;;;;5049518;28;20048;-86
2023/10/19 09:06:56;;;;;;;1.35;0.85;;;17.60;99.90;;;;;;5043851;28;20056;-85
2023/10/19 09:09:25;;;;;;;1.52;1.23;;;18.00;99.90;;;;;;5066103;28;20037;-86
2023/10/19 09:11:54;;;;;;;0.55;0.55;;;18.10;99.90;;;;;;5059675;28;20037;-84
2023/10/19 09:14:50;;;;;;;0.85;0.73;;;18.00;99.90;;;;;;5044777;28;20040;-85
2023/10/19 09:17:28;;;;;;;1.40;0.85;;;18.10;99.90;;;;;;5042602;28;20045;-86
2023/10/19 09:19:56;;;;;;;1.23;1.05;;;18.60;99.90;;;;;;5045291;28;20477;-85
2023/10/19 09:22:22;;;;;;;0.90;0.73;;;18.60;99.90;;;;;;5035743;28;20032;-84
2023/10/19 09:24:49;;;;;;;0.98;0.88;;;18.30;99.90;;;;;;5053786;28;20043;-83
2023/10/19 09:27:19;;;;;;;0.32;0.32;;;18.30;99.90;;;;;;5048491;28;20060;-86
2023/10/19 09:29:48;;;;;;;1.33;0.57;;;17.90;99.90;;;;;;5039212;28;20050;-84
2023/10/19 09:32:14;;;;;;;0.55;0.55;;;17.40;99.90;;;;;;5053032;28;20458;-83
2023/10/19 09:34:43;;;;;;;0.65;0.65;;;17.30;99.90;;;;;;5053718;28;20041;-82
2023/10/19 09:37:11;;;;;;;0.90;0.90;;;17.10;99.90;;;;;;5044902;28;20041;-83
2023/10/19 09:39:37;;;;;;;0.75;0.75;;;17.20;99.90;;;;;;5035784;28;20489;-84
2023/10/19 09:42:11;;;;;;;16.02;1.17;;;17.20;99.90;;;;;;5038235;28;20381;-82
2023/10/19 09:44:45;;;;;;;1.20;0.40;;;17.30;99.90;;;;;;5045795;28;20032;-82
2023/10/19 09:47:14;;;;;;;1.58;0.52;;;17.20;99.90;;;;;;5046150;28;20033;-81
2023/10/19 09:49:42;;;;;;;1.35;0.90;;;17.20;99.90;;;;;;5050224;28;20052;-82
2023/10/19 09:52:10;;;;;;;0.57;0.55;;;17.30;99.90;;;;;;5036196;28;20060;-81
2023/10/19 09:55:05;;;;;;;0.30;0.30;;;17.30;99.90;;;;;;5058888;28;20033;-79
2023/10/19 09:57:51;;;;;;;1.00;0.77;;;17.30;99.90;;;;;;5040778;28;20044;-79
2023/10/19 10:00:23;;;;;;;4.10;0.93;;;17.30;99.90;;;;;;5047952;28;20033;-81
2023/10/19 10:02:50;;;;;;;3.03;1.42;;;17.20;99.90;;;;;;5046083;28;20374;-79
2023/10/19 10:05:41;;;;;;;4.78;1.35;;;17.20;99.90;;;;;;5033832;28;20034;-81
2023/10/19 10:08:17;;;;;;;0.75;0.50;;;17.20;99.90;;;;;;5048822;28;20040;-80
2023/10/19 10:10:47;;;;;;;1.00;0.88;;;17.10;99.90;;;;;;5051508;28;20044;-81
2023/10/19 10:13:33;;;;;;;1.95;1.23;;;17.00;99.90;;;;;;5054374;28;20044;-81
2023/10/19 10:16:02;;;;;;;0.13;0.13;;;17.00;99.90;;;;;;5021466;28;20044;-79
2023/10/19 10:18:35;;;;;;;2.60;0.80;;;17.20;99.90;;;;;;5037996;28;20040;-81
2023/10/19 10:21:15;;;;;;;1.50;1.38;;;17.40;99.90;;;;;;5046751;28;20037;-81
2023/10/19 10:23:47;;;;;;;0.77;0.60;;;17.60;99.90;;;;;;5033703;28;20033;-80
2023/10/19 10:26:17;;;;;;;4.20;0.93;;;17.80;99.90;;;;;;5056263;28;20044;-82
2023/10/19 10:28:49;;;;;;;0.63;0.43;;;17.80;99.90;;;;;;5015568;28;20478;-80
2023/10/19 10:31:20;;;;;;;0.35;0.35;;;17.90;99.90;;;;;;5048208;28;21003;-82
2023/10/19 10:33:57;;;;;;;0.43;0.43;;;17.80;99.90;;;;;;5045328;28;20366;-79
2023/10/19 10:36:23;;;;;;;0.45;0.45;;;17.70;99.90;;;;;;5051489;28;20204;-83
2023/10/19 10:38:50;;;;;;;0.50;0.50;;;17.50;99.90;;;;;;5054076;28;20036;-80
2023/10/19 10:41:31;;;;;;;0.55;0.55;;;17.40;99.90;;;;;;5042963;28;20497;-81
2023/10/19 10:43:58;;;;;;;1.65;0.40;;;17.30;99.90;;;;;;5045478;28;20040;-82
2023/10/19 10:46:28;;;;;;;6.50;2.40;;;17.30;99.90;;;;;;5054313;28;20033;-81
2023/10/19 10:48:55;;;;;;;10.70;1.45;;;17.40;99.90;;;;;;5057461;28;20041;-81
2023/10/19 10:51:28;;;;;;;0.90;0.52;;;17.40;99.90;;;;;;5052190;28;20040;-81
2023/10/19 10:53:54;;;;;;;0.20;0.20;;;17.40;99.90;;;;;;5051553;28;20045;-79
2023/10/19 10:56:23;;;;;;;3.40;1.25;;;17.30;99.90;;;;;;5052402;28;20434;-79
2023/10/19 10:58:50;;;;;;;0.98;0.55;;;17.30;99.90;;;;;;5058095;28;20033;-80
2023/10/19 11:01:29;;;;;;;0.32;0.32;;;17.20;99.90;;;;;;5039268;28;20033;-81
2023/10/19 11:04:24;;;;;;;1.45;0.65;;;17.20;99.90;;;;;;5058182;28;20428;-81
2023/10/19 11:06:51;;;;;;;0.85;0.52;;;17.20;99.90;;;;;;5006828;28;20055;-81
2023/10/19 11:09:24;;;;;;;4.50;1.13;;;17.10;99.90;;;;;;5048371;28;20041;-80
2023/10/19 11:11:52;;;;;;;2.22;1.30;;;17.10;99.90;;;;;;5052813;28;20497;-78
2023/10/19 11:14:18;;;;;;;0.50;0.45;;;17.00;99.90;;;;;;5050264;28;20035;-79
2023/10/19 11:16:44;;;;;;;0.77;0.77;;;17.00;99.90;;;;;;5040137;28;20033;-79
2023/10/19 11:19:11;;;;;;;0.73;0.73;;;16.90;99.90;;;;;;5046636;28;20040;-78
2023/10/19 11:21:37;;;;;;;0.95;0.35;;;16.90;99.90;;;;;;5052602;28;20041;-78
2023/10/19 11:24:04;;;;;;;0.82;0.75;;;16.80;99.90;;;;;;5036008;28;20040;-78
2023/10/19 11:26:30;;;;;;;0.63;0.50;;;16.90;99.90;;;;;;5048380;28;20033;-78
2023/10/19 11:29:01;;;;;;;1.17;0.65;;;17.00;99.90;;;;;;5048252;28;20045;-76
2023/10/19 11:31:27;;;;;;;1.20;0.90;;;17.00;99.90;;;;;;5050894;28;20048;-75
2023/10/19 11:33:58;;;;;;;0.98;0.77;;;17.00;99.90;;;;;;5051490;28;20457;-75
2023/10/19 11:36:25;;;;;;;7.13;0.80;;;16.90;99.90;;;;;;5038795;28;20485;-78
2023/10/19 11:38:53;;;;;;;0.32;0.32;;;16.90;99.90;;;;;;5047115;28;20033;-75
2023/10/19 11:41:19;;;;;;;0.57;0.43;;;16.90;99.90;;;;;;5056256;28;20052;-75
2023/10/19 11:43:47;;;;;;;0.30;0.30;;;16.80;99.90;;;;;;5059945;28;20041;-75
2023/10/19 11:46:14;;;;;;;0.50;0.50;;;16.80;99.90;;;;;;5046107;28;20029;-74
2023/10/19 11:48:42;;;;;;;8.48;1.15;;;16.80;99.90;;;;;;5050109;28;20041;-75
2023/10/19 11:51:10;;;;;;;5.25;1.73;;;16.80;99.90;;;;;;5047856;28;20029;-75
2023/10/19 11:53:38;;;;;;;0.65;0.60;;;16.70;99.90;;;;;;5060282;28;20474;-76
2023/10/19 11:56:09;;;;;;;0.38;0.20;;;16.70;99.90;;;;;;5054601;28;20037;-75
2023/10/19 11:58:37;;;;;;;0.55;0.40;;;16.70;99.90;;;;;;5050863;28;20041;-75
2023/10/19 12:01:13;;;;;;;0.15;0.15;;;16.60;99.90;;;;;;5049371;28;20037;-75
2023/10/19 12:03:40;;;;;;;0.30;0.30;;;16.60;99.90;;;;;;5060810;28;20040;-75
2023/10/19 12:06:07;;;;;;;0.73;0.43;;;16.70;99.90;;;;;;5057355;28;20030;-75
2023/10/19 12:08:35;;;;;;;0.75;0.63;;;16.70;99.90;;;;;;5063039;28;20033;-74
2023/10/19 12:11:15;;;;;;;1.00;0.65;;;16.70;99.90;;;;;;5061229;28;20063;-75
2023/10/19 12:13:44;;;;;;;2.28;1.10;;;16.80;99.90;;;;;;5056850;28;20039;-75
2023/10/19 12:16:17;;;;;;;0.43;0.30;;;16.70;99.90;;;;;;5051877;28;20025;-80
2023/10/19 12:18:46;;;;;;;0.32;0.25;;;16.70;99.90;;;;;;5050668;28;20042;-75
2023/10/19 12:21:12;;;;;;;0.75;0.30;;;16.80;99.90;;;;;;5038715;28;20034;-76
2023/10/19 12:23:54;;;;;;;2.40;1.48;;;16.80;99.90;;;;;;5064164;28;20036;-75
2023/10/19 12:26:20;;;;;;;0.70;0.60;;;16.80;99.90;;;;;;5049164;28;20048;-79
2023/10/19 12:28:47;;;;;;;1.05;0.82;;;16.90;99.90;;;;;;5047597;28;20036;-78
2023/10/19 12:31:13;;;;;;;0.80;0.77;;;16.90;99.90;;;;;;5058678;28;20478;-77
2023/10/19 12:33:41;;;;;;;3.35;2.58;;;16.90;99.90;;;;;;5056009;28;20033;-77
2023/10/19 12:38:50;;;;;;;3.22;2.10;;;16.80;99.90;;;;;;5053319;28;20048;-77
2023/10/19 12:41:18;;;;;;;2.85;1.50;;;16.70;99.90;;;;;;5056456;28;20048;-76
2023/10/19 12:43:46;;;;;;;1.25;1.15;;;16.60;99.90;;;;;;5059156;28;20037;-76
2023/10/19 12:46:13;;;;;;;1.85;0.50;;;16.60;99.90;;;;;;5062166;28;20029;-82
2023/10/19 12:48:40;;;;;;;0.30;0.30;;;16.50;99.90;;;;;;5061290;28;20037;-74
2023/10/19 12:51:11;;;;;;;0.63;0.57;;;16.40;99.90;;;;;;5053808;28;20394;-76
2023/10/19 12:53:40;;;;;;;1.25;1.08;;;16.40;99.90;;;;;;5058498;28;20063;-75
2023/10/19 12:56:08;;;;;;;0.75;0.75;;;16.30;99.90;;;;;;5067234;28;20029;-76
2023/10/19 12:58:38;;;;;;;1.85;1.05;;;16.20;99.90;;;;;;5070214;28;20069;-78
2023/10/19 13:01:05;;;;;;;1.30;0.98;;;16.10;99.90;;;;;;5061697;28;20044;-81
2023/10/19 13:03:32;;;;;;;0.40;0.32;;;16.20;99.90;;;;;;5057852;28;20520;-79
2023/10/19 13:06:03;;;;;;;1.40;0.98;;;16.20;99.90;;;;;;5050710;28;20118;-74
2023/10/19 13:08:30;;;;;;;1.03;0.83;;;16.10;99.90;;;;;;5058091;28;20608;-74
2023/10/19 13:10:56;;;;;;;2.33;1.77;;;16.10;99.90;;;;;;5052805;28;20644;-75
2023/10/19 13:13:24;;;;;;;4.90;0.63;;;16.00;99.90;;;;;;5051636;28;20037;-74
2023/10/19 13:15:50;;;;;;;1.40;0.88;;;16.00;99.90;;;;;;5036889;28;20040;-75
2023/10/19 13:18:20;;;;;;;0.73;0.60;;;16.00;99.90;;;;;;5051589;28;20045;-75
2023/10/19 13:20:48;;;;;;;;;;;16.00;99.90;;;;;;5051498;28;20029;-76
2023/10/19 13:23:21;;;;;;;0.60;0.60;;;16.10;99.90;;;;;;5048448;28;20376;-74
2023/10/19 13:28:14;;;;;;;2.35;1.38;;;16.20;99.90;;;;;;5056761;28;20477;-74
2023/10/19 13:30:43;;;;;;;1.30;1.15;;;16.20;99.90;;;;;;5056246;28;20377;-76